createdAt,value
2022-09-16T00:04:03.836Z,78.72
2022-09-16T00:08:16.196Z,79.29
2022-09-16T00:12:28.300Z,79.05
2022-09-16T00:16:40.149Z,79.18
2022-09-16T00:20:54.751Z,79.06
2022-09-16T00:25:07.746Z,79.17
2022-09-16T00:29:19.293Z,79.09
2022-09-16T00:33:31.466Z,79.04
2022-09-16T00:37:43.021Z,79.15
2022-09-16T00:41:54.646Z,79.04
2022-09-16T00:46:06.163Z,79.26
2022-09-16T00:50:27.752Z,79.59
2022-09-16T00:54:41.238Z,79.75
2022-09-16T00:59:03.292Z,79.51
2022-09-16T01:03:14.921Z,79.41
2022-09-16T01:07:33.214Z,79.55
2022-09-16T01:11:44.841Z,79.81
2022-09-16T01:16:05.477Z,79.83
2022-09-16T01:20:54.793Z,79.54
2022-09-16T01:25:24.670Z,79.89
2022-09-16T01:30:01.418Z,80.08
2022-09-16T01:34:31.047Z,80.02
2022-09-16T01:39:09.522Z,80.29
2022-09-16T01:43:34.709Z,80.34
2022-09-16T01:48:05.103Z,80.13
2022-09-16T01:52:25.861Z,80.13
2022-09-16T01:57:08.811Z,80.37
2022-09-16T02:01:36.181Z,79.84
2022-09-16T02:05:55.488Z,80.15
2022-09-16T02:10:32.678Z,80.24
2022-09-16T02:14:48.095Z,80.59
2022-09-16T02:19:05.389Z,80.66
2022-09-16T02:23:25.181Z,81.06
2022-09-16T02:27:39.607Z,80.96
2022-09-16T02:31:56.119Z,81.38
2022-09-16T02:36:09.626Z,81.15
2022-09-16T02:40:26.903Z,81.26
2022-09-16T02:44:38.822Z,80.98
2022-09-16T02:48:53.323Z,80.87
2022-09-16T02:53:19.700Z,81.31
2022-09-16T02:57:31.753Z,81.25
2022-09-16T03:01:46.113Z,81.89
2022-09-16T03:06:10.179Z,81.71
2022-09-16T03:10:25.702Z,81.94
2022-09-16T03:15:01.534Z,81.84
2022-09-16T03:19:25.038Z,82.28
2022-09-16T03:24:10.620Z,81.92
2022-09-16T03:28:40.877Z,82.15
2022-09-16T03:33:04.706Z,82.69
2022-09-16T03:37:19.833Z,82.60
2022-09-16T03:41:33.982Z,82.57
2022-09-16T03:45:45.615Z,82.54
2022-09-16T03:49:57.221Z,83.23
2022-09-16T03:54:08.850Z,83.42
2022-09-16T03:58:20.573Z,83.34
2022-09-16T04:02:32.362Z,83.39
2022-09-16T04:06:44.026Z,82.91
2022-09-16T04:10:57.382Z,83.00
2022-09-16T04:15:09.322Z,83.17
2022-09-16T04:19:21.073Z,83.31
2022-09-16T04:23:32.583Z,83.13
2022-09-16T04:27:44.137Z,83.24
2022-09-16T04:31:55.786Z,83.78
2022-09-16T04:36:13.301Z,83.60
2022-09-16T04:40:24.918Z,83.63
2022-09-16T04:44:36.490Z,83.70
2022-09-16T04:48:49.445Z,83.38
2022-09-16T04:53:01.003Z,83.23
2022-09-16T04:57:12.623Z,83.09
2022-09-16T05:01:26.586Z,83.03
2022-09-16T05:05:38.096Z,82.92
2022-09-16T05:09:49.595Z,83.04
2022-09-16T05:14:02.754Z,83.55
2022-09-16T05:18:14.271Z,83.39
2022-09-16T05:22:25.782Z,83.35
2022-09-16T05:26:39.984Z,82.96
2022-09-16T05:30:51.523Z,83.04
2022-09-16T05:35:03.208Z,83.31
2022-09-16T05:39:23.277Z,83.16
2022-09-16T05:43:36.075Z,83.13
2022-09-16T05:47:51.459Z,83.37
2022-09-16T05:52:03.093Z,83.32
2022-09-16T05:56:17.615Z,83.43
2022-09-16T06:00:29.727Z,83.11
2022-09-16T06:04:41.621Z,83.21
2022-09-16T06:08:56.769Z,83.37
2022-09-16T06:13:08.354Z,84.04
2022-09-16T06:17:19.884Z,82.47
2022-09-16T06:21:31.689Z,78.16
2022-09-16T06:25:44.041Z,75.57
2022-09-16T06:29:55.554Z,73.06
2022-09-16T06:34:08.469Z,71.01
2022-09-16T06:38:19.998Z,66.77
2022-09-16T06:42:31.994Z,64.11
2022-09-16T06:46:48.264Z,61.52
2022-09-16T06:51:01.851Z,58.61
2022-09-16T06:55:13.413Z,57.46
2022-09-16T06:59:25.010Z,56.16
2022-09-16T07:03:45.018Z,54.73
2022-09-16T07:07:58.073Z,54.89
2022-09-16T07:12:09.660Z,54.28
2022-09-16T07:16:23.522Z,54.75
2022-09-16T07:20:36.039Z,53.76
2022-09-16T07:24:47.630Z,52.41
2022-09-16T07:29:01.087Z,51.24
2022-09-16T07:33:12.702Z,51.81
2022-09-16T07:37:24.276Z,52.97
2022-09-16T07:41:38.192Z,53.39
2022-09-16T07:45:59.687Z,54.31
2022-09-16T07:50:11.271Z,55.27
2022-09-16T07:54:22.882Z,55.63
2022-09-16T07:58:34.862Z,55.23
2022-09-16T08:02:46.379Z,54.16
2022-09-16T08:06:58.002Z,50.03
2022-09-16T08:11:10.184Z,49.75
2022-09-16T08:15:21.696Z,47.05
2022-09-16T08:19:33.330Z,46.36
2022-09-16T08:23:45.601Z,45.58
2022-09-16T08:27:57.142Z,43.03
2022-09-16T08:32:08.765Z,41.76
2022-09-16T08:36:22.753Z,41.26
2022-09-16T08:40:36.601Z,40.23
2022-09-16T08:45:10.815Z,40.00
2022-09-16T08:49:26.838Z,39.58
2022-09-16T08:53:44.637Z,38.85
2022-09-16T08:58:02.174Z,37.98
2022-09-16T09:02:47.713Z,38.93
2022-09-16T09:07:05.322Z,40.43
2022-09-16T09:11:39.497Z,40.61
2022-09-16T09:16:04.292Z,40.90
2022-09-16T09:20:57.936Z,40.91
2022-09-16T09:25:34.336Z,37.88
2022-09-16T09:30:07.076Z,37.62
2022-09-16T09:34:53.387Z,35.45
2022-09-16T09:39:09.665Z,34.69
2022-09-16T09:43:42.343Z,34.45
2022-09-16T09:48:10.981Z,33.51
2022-09-16T09:52:26.408Z,33.44
2022-09-16T09:56:44.434Z,32.37
2022-09-16T10:00:57.567Z,32.53
2022-09-16T10:05:24.904Z,32.77
2022-09-16T10:09:38.005Z,32.51
2022-09-16T10:13:55.616Z,32.38
2022-09-16T10:18:19.206Z,32.18
2022-09-16T10:22:33.373Z,32.33
2022-09-16T10:26:44.937Z,31.94
2022-09-16T10:30:58.559Z,30.77
2022-09-16T10:35:15.819Z,30.29
2022-09-16T10:39:29.932Z,30.02
2022-09-16T10:43:51.026Z,29.69
2022-09-16T10:48:12.881Z,28.92
2022-09-16T10:52:27.632Z,29.27
2022-09-16T10:56:51.521Z,29.85
2022-09-16T11:01:21.696Z,31.29
2022-09-16T11:05:36.322Z,32.97
2022-09-16T11:10:09.673Z,34.67
2022-09-16T11:14:50.795Z,37.05
2022-09-16T11:19:23.567Z,38.56
2022-09-16T11:24:03.138Z,38.87
2022-09-16T11:28:18.362Z,37.10
2022-09-16T11:32:55.003Z,35.88
2022-09-16T11:37:32.767Z,34.61
2022-09-16T11:42:14.257Z,32.91
2022-09-16T11:46:56.491Z,31.69
2022-09-16T11:51:36.984Z,30.92
2022-09-16T11:56:07.521Z,31.59
2022-09-16T12:00:19.482Z,32.32
2022-09-16T12:05:01.486Z,33.41
2022-09-16T12:09:20.521Z,32.71
2022-09-16T12:13:46.236Z,32.53
2022-09-16T12:18:03.426Z,31.39
2022-09-16T12:22:20.760Z,31.77
2022-09-16T12:26:38.597Z,33.04
2022-09-16T12:31:12.723Z,33.73
2022-09-16T12:39:43.536Z,36.60
2022-09-16T12:44:30.417Z,37.73
2022-09-16T12:49:15.564Z,38.78
2022-09-16T12:53:42.318Z,39.32
2022-09-16T12:58:09.447Z,40.09
2022-09-16T13:02:26.870Z,40.26
2022-09-16T13:06:45.686Z,40.80
2022-09-16T13:11:28.417Z,40.65
2022-09-16T13:15:35.116Z,40.80
2022-09-16T13:19:52.002Z,41.37
2022-09-16T13:24:16.429Z,41.96
2022-09-16T13:28:35.140Z,41.94
2022-09-16T13:33:08.496Z,42.52
2022-09-16T13:37:26.543Z,43.04
2022-09-16T13:41:41.355Z,42.61
2022-09-16T13:46:11.009Z,41.98
2022-09-16T13:50:25.486Z,41.61
2022-09-16T13:55:09.430Z,41.97
2022-09-16T13:59:23.184Z,42.30
2022-09-16T14:03:49.998Z,42.95
2022-09-16T14:08:29.288Z,43.89
2022-09-16T14:12:50.002Z,44.70
2022-09-16T14:17:14.191Z,45.65
2022-09-16T14:21:25.795Z,46.20
2022-09-16T14:25:38.943Z,46.45
2022-09-16T14:30:01.753Z,46.49
2022-09-16T14:34:22.205Z,46.51
2022-09-16T14:39:07.077Z,46.70
2022-09-16T14:43:18.948Z,46.48
2022-09-16T14:47:53.401Z,45.96
2022-09-16T14:52:15.960Z,45.66
2022-09-16T14:56:27.518Z,48.17
2022-09-16T15:00:50.818Z,51.44
2022-09-16T15:05:23.940Z,53.80
2022-09-16T15:09:43.224Z,56.76
2022-09-16T15:13:55.277Z,58.24
2022-09-16T15:18:24.223Z,58.98
2022-09-16T15:22:39.969Z,58.41
2022-09-16T15:26:52.588Z,59.52
2022-09-16T15:31:05.362Z,59.09
2022-09-16T15:35:22.310Z,59.20
2022-09-16T15:39:39.065Z,59.44
2022-09-16T15:43:50.794Z,59.35
2022-09-16T15:48:07.577Z,58.71
2022-09-16T15:52:19.395Z,58.47
2022-09-16T15:56:48.770Z,56.36
2022-09-16T16:01:04.757Z,54.76
2022-09-16T16:05:25.368Z,53.65
2022-09-16T16:09:40.499Z,53.31
2022-09-16T16:13:52.107Z,53.65
2022-09-16T16:18:08.702Z,53.56
2022-09-16T16:22:20.606Z,53.86
2022-09-16T16:26:32.247Z,54.26
2022-09-16T16:30:43.803Z,54.51
2022-09-16T16:34:58.027Z,54.39
2022-09-16T16:39:09.889Z,53.66
2022-09-16T16:43:21.404Z,53.11
2022-09-16T16:47:32.930Z,53.57
2022-09-16T16:51:44.884Z,53.04
2022-09-16T16:56:14.763Z,53.30
2022-09-16T17:00:27.658Z,53.18
2022-09-16T17:04:39.175Z,53.83
2022-09-16T17:08:50.754Z,54.45
2022-09-16T17:13:02.307Z,54.49
2022-09-16T17:17:13.802Z,55.05
2022-09-16T17:21:28.459Z,56.39
2022-09-16T17:25:39.936Z,56.52
2022-09-16T17:29:51.428Z,57.80
2022-09-16T17:34:05.386Z,58.74
2022-09-16T17:38:16.934Z,59.48
2022-09-16T17:42:28.413Z,60.18
2022-09-16T17:46:41.196Z,61.08
2022-09-16T17:50:54.181Z,62.20
2022-09-16T17:55:06.051Z,62.15
2022-09-16T17:59:18.742Z,62.45
2022-09-16T18:03:30.253Z,63.12
2022-09-16T18:07:45.537Z,63.00
2022-09-16T18:11:58.524Z,63.47
2022-09-16T18:16:13.613Z,64.09
2022-09-16T18:20:25.213Z,63.76
2022-09-16T18:24:36.772Z,64.03
2022-09-16T18:33:21.109Z,64.73
2022-09-16T18:37:32.578Z,64.96
2022-09-16T18:41:45.196Z,64.94
2022-09-16T18:46:06.799Z,65.21
2022-09-16T18:50:19.041Z,65.48
2022-09-16T18:54:30.586Z,66.00
2022-09-16T18:58:42.424Z,66.18
2022-09-16T19:02:53.929Z,66.46
2022-09-16T19:07:09.633Z,66.68
2022-09-16T19:11:22.535Z,66.58
2022-09-16T19:15:34.802Z,66.84
2022-09-16T19:19:47.824Z,66.62
2022-09-16T19:24:01.714Z,67.02
2022-09-16T19:28:13.336Z,67.04
2022-09-16T19:32:24.863Z,67.25
2022-09-16T19:36:37.471Z,67.23
2022-09-16T19:40:50.511Z,67.34
2022-09-16T19:45:29.042Z,67.16
2022-09-16T19:49:40.524Z,67.57
2022-09-16T19:53:53.346Z,67.24
2022-09-16T19:58:04.812Z,67.85
2022-09-16T20:02:16.662Z,67.59
2022-09-16T20:06:36.500Z,67.79
2022-09-16T20:10:47.973Z,67.56
2022-09-16T20:15:00.350Z,67.66
2022-09-16T20:19:15.027Z,68.01
2022-09-16T20:23:26.539Z,68.48
2022-09-16T20:27:38.096Z,68.18
2022-09-16T20:31:52.503Z,68.28
2022-09-16T20:36:09.863Z,68.24
2022-09-16T20:40:21.466Z,68.86
2022-09-16T20:44:32.991Z,68.58
2022-09-16T20:48:45.280Z,68.60
2022-09-16T20:52:56.933Z,69.20
2022-09-16T20:57:08.455Z,69.40
2022-09-16T21:01:25.386Z,69.00
2022-09-16T21:05:36.907Z,69.42
2022-09-16T21:09:48.369Z,69.17
2022-09-16T21:14:08.547Z,69.11
2022-09-16T21:18:20.028Z,69.46
2022-09-16T21:22:31.529Z,69.15
2022-09-16T21:26:44.175Z,69.13
2022-09-16T21:31:01.872Z,69.23
2022-09-16T21:35:14.342Z,69.13
2022-09-16T21:39:25.881Z,69.41
2022-09-16T21:43:43.360Z,69.33
2022-09-16T21:47:55.097Z,69.54
2022-09-16T21:52:06.612Z,69.53
2022-09-16T21:56:22.620Z,69.76
2022-09-16T22:00:34.264Z,69.77
2022-09-16T22:04:45.732Z,69.76
2022-09-16T22:09:00.825Z,69.89
2022-09-16T22:13:12.397Z,69.84
2022-09-16T22:17:24.888Z,69.86
2022-09-16T22:21:39.036Z,69.68
2022-09-16T22:25:50.469Z,70.18
2022-09-16T22:30:01.949Z,70.48
2022-09-16T22:34:13.416Z,69.88
2022-09-16T22:38:24.856Z,70.33
2022-09-16T22:42:36.479Z,70.00
2022-09-16T22:46:48.399Z,70.12
2022-09-16T22:51:01.131Z,70.29
2022-09-16T22:55:12.608Z,70.44
2022-09-16T22:59:24.125Z,70.98
2022-09-16T23:03:36.136Z,71.52
2022-09-16T23:07:48.909Z,71.23
2022-09-16T23:12:00.362Z,71.57
2022-09-16T23:16:15.715Z,71.56
2022-09-16T23:20:27.198Z,71.37
2022-09-16T23:24:38.633Z,71.49
2022-09-16T23:28:52.645Z,71.87
2022-09-16T23:33:04.142Z,71.68
2022-09-16T23:37:15.553Z,71.92
2022-09-16T23:41:27.833Z,72.30
2022-09-16T23:45:39.349Z,72.06
2022-09-16T23:49:50.822Z,73.31
2022-09-16T23:54:02.348Z,73.51
2022-09-16T23:58:14.320Z,73.20
